Long Point, Illinois
Current Conditions -  °F | °C
As of 10:15 PM on Tuesday 21 Oct 2014 (Local Time) from KPNT Reporting Station
Overcast Overcast  
Wind Chill: 42°   Ceiling: 2800
Heat Index: 45°   Visibility: 10mi
Dew Point: 38°   Wind: 5mph
Humidity: 77%   Direction: 60°ENE
Pressure: 30.26"   Gusts: NA
Location:  41°N, 88.89°W
Report Text: KPNT 220315Z AUTO 06004KT 10SM OVC028 07/03 A3026 RMK AO2 T00710033
Loading
Personal Weather Stations






























Interactive Weather Map New forecast layout! Learn more

10-Day Weather Forecast

Advertisements
Track Severe Weather on mobile